createdAt,value
2018-03-27T00:02:10.747Z,31.48
2018-03-27T00:04:39.418Z,29.80
2018-03-27T00:07:08.154Z,32.03
2018-03-27T00:09:36.967Z,31.48
2018-03-27T00:12:05.784Z,30.53
2018-03-27T00:14:34.607Z,30.13
2018-03-27T00:17:03.432Z,29.90
2018-03-27T00:19:32.251Z,30.33
2018-03-27T00:22:01.574Z,30.02
2018-03-27T00:24:45.251Z,30.35
2018-03-27T00:27:13.277Z,30.90
2018-03-27T00:29:53.431Z,28.93
2018-03-27T00:32:40.329Z,27.77
2018-03-27T00:35:26.607Z,26.83
2018-03-27T00:38:12.892Z,25.13
2018-03-27T00:40:47.024Z,26.05
2018-03-27T00:43:15.545Z,25.98
2018-03-27T00:45:43.952Z,25.27
2018-03-27T00:48:12.363Z,26.52
2018-03-27T00:50:40.981Z,24.63
2018-03-27T00:53:09.936Z,23.50
2018-03-27T00:55:38.582Z,24.00
2018-03-27T00:58:07.299Z,23.73
2018-03-27T01:00:36.098Z,23.20
2018-03-27T01:03:04.770Z,23.00
2018-03-27T01:05:33.454Z,21.87
2018-03-27T01:08:02.261Z,22.17
2018-03-27T01:10:31.084Z,22.02
2018-03-27T01:12:59.914Z,23.25
2018-03-27T01:15:28.728Z,22.08
2018-03-27T01:17:57.452Z,23.95
2018-03-27T01:20:26.282Z,22.20
2018-03-27T01:22:55.096Z,22.33
2018-03-27T01:25:23.831Z,22.20
2018-03-27T01:27:52.540Z,22.30
2018-03-27T01:30:21.361Z,22.05
2018-03-27T01:32:50.098Z,21.95
2018-03-27T01:35:18.906Z,22.92
2018-03-27T01:37:47.627Z,22.45
2018-03-27T01:40:16.452Z,21.62
2018-03-27T01:42:45.170Z,21.30
2018-03-27T01:45:13.870Z,22.08
2018-03-27T01:47:42.716Z,21.42
2018-03-27T01:50:11.543Z,22.45
2018-03-27T01:52:40.183Z,24.02
2018-03-27T01:55:08.892Z,19.48
2018-03-27T01:57:37.615Z,21.92
2018-03-27T02:00:06.418Z,23.10
2018-03-27T02:02:35.153Z,22.37
2018-03-27T02:05:03.888Z,19.67
2018-03-27T02:07:33.295Z,17.60
2018-03-27T02:10:02.188Z,15.98
2018-03-27T02:12:36.362Z,16.70
2018-03-27T02:15:10.699Z,18.40
2018-03-27T02:17:44.848Z,18.20
2018-03-27T02:20:19.053Z,17.08
2018-03-27T02:23:03.759Z,18.55
2018-03-27T02:25:32.584Z,17.08
2018-03-27T02:28:01.404Z,17.15
2018-03-27T02:30:30.226Z,16.92
2018-03-27T02:32:58.911Z,15.70
2018-03-27T02:35:27.773Z,16.00
2018-03-27T02:37:56.493Z,14.93
2018-03-27T02:40:25.226Z,14.77
2018-03-27T02:42:54.040Z,11.70
2018-03-27T02:45:22.698Z,13.43
2018-03-27T02:47:51.384Z,10.85
2018-03-27T02:50:20.005Z,13.85
2018-03-27T02:52:48.721Z,13.98
2018-03-27T02:55:17.379Z,13.70
2018-03-27T02:57:46.168Z,14.20
2018-03-27T03:00:14.894Z,14.27
2018-03-27T03:02:43.561Z,13.73
2018-03-27T03:05:12.230Z,13.68
2018-03-27T03:07:40.861Z,13.38
2018-03-27T03:10:09.520Z,12.73
2018-03-27T03:12:38.273Z,10.50
2018-03-27T03:15:06.953Z,9.63
2018-03-27T03:17:35.590Z,8.80
2018-03-27T03:20:04.327Z,8.13
2018-03-27T03:22:32.990Z,9.07
2018-03-27T03:25:01.656Z,8.43
2018-03-27T03:27:30.429Z,7.97
2018-03-27T03:29:59.154Z,7.27
2018-03-27T03:32:27.876Z,7.28
2018-03-27T03:34:56.602Z,6.35
2018-03-27T03:37:25.231Z,7.45
2018-03-27T03:39:54.264Z,6.85
2018-03-27T03:42:22.934Z,7.37
2018-03-27T03:44:51.569Z,7.35
2018-03-27T03:47:20.184Z,6.53
2018-03-27T03:49:48.786Z,6.90
2018-03-27T03:52:17.390Z,6.90
2018-03-27T03:54:46.040Z,7.33
2018-03-27T03:57:14.643Z,6.90
2018-03-27T03:59:43.362Z,6.97
2018-03-27T04:02:11.971Z,7.00
2018-03-27T04:04:40.573Z,7.22
2018-03-27T04:07:09.922Z,6.68
2018-03-27T04:09:38.567Z,7.68
2018-03-27T04:12:07.241Z,8.05
2018-03-27T04:14:35.859Z,8.45
2018-03-27T04:17:04.496Z,7.70
2018-03-27T04:19:33.095Z,7.85
2018-03-27T04:22:01.724Z,7.45
2018-03-27T04:24:30.384Z,6.72
2018-03-27T04:26:58.971Z,7.30
2018-03-27T04:29:28.376Z,7.40
2018-03-27T04:31:56.996Z,7.07
2018-03-27T04:34:25.720Z,7.15
2018-03-27T04:36:54.448Z,6.97
2018-03-27T04:39:23.106Z,7.18
2018-03-27T04:41:51.791Z,8.90
2018-03-27T04:44:20.511Z,7.00
2018-03-27T04:46:49.300Z,7.87
2018-03-27T04:49:17.908Z,8.20
2018-03-27T04:51:46.772Z,8.90
2018-03-27T04:54:15.496Z,8.00
2018-03-27T04:56:44.104Z,8.50
2018-03-27T04:59:12.759Z,9.23
2018-03-27T05:01:41.525Z,9.10
2018-03-27T05:04:10.182Z,9.18
2018-03-27T05:06:38.804Z,7.87
2018-03-27T05:09:08.426Z,8.65
2018-03-27T05:11:37.065Z,7.72
2018-03-27T05:14:05.772Z,8.85
2018-03-27T05:16:34.743Z,8.20
2018-03-27T05:19:03.360Z,7.90
2018-03-27T05:21:32.038Z,7.07
2018-03-27T05:24:00.695Z,7.60
2018-03-27T05:26:29.414Z,8.07
2018-03-27T05:28:58.010Z,8.57
2018-03-27T05:31:26.590Z,8.02
2018-03-27T05:33:55.343Z,8.02
2018-03-27T05:36:24.169Z,8.48
2018-03-27T05:38:52.767Z,8.85
2018-03-27T05:41:21.522Z,8.07
2018-03-27T05:43:50.166Z,8.05
2018-03-27T05:46:18.894Z,7.12
2018-03-27T05:48:47.542Z,8.90
2018-03-27T05:51:16.197Z,8.38
2018-03-27T05:53:44.997Z,9.85
2018-03-27T05:56:13.614Z,9.52
2018-03-27T05:58:42.259Z,8.68
2018-03-27T06:01:11.000Z,23.00
2018-03-27T06:03:39.708Z,16.70
2018-03-27T06:06:08.451Z,11.40
2018-03-27T06:08:37.088Z,10.67
2018-03-27T06:11:06.075Z,17.43
2018-03-27T06:13:34.722Z,22.87
2018-03-27T06:16:03.366Z,10.70
2018-03-27T06:18:32.062Z,9.60
2018-03-27T06:21:00.698Z,12.90
2018-03-27T06:23:29.381Z,12.27
2018-03-27T06:25:58.206Z,10.23
2018-03-27T06:28:27.106Z,7.93
2018-03-27T06:30:55.730Z,8.33
2018-03-27T06:33:24.317Z,7.87
2018-03-27T06:35:53.196Z,9.40
2018-03-27T06:38:22.125Z,10.53
2018-03-27T06:40:50.937Z,8.43
2018-03-27T06:43:19.899Z,12.97
2018-03-27T06:45:48.585Z,23.60
2018-03-27T06:48:17.305Z,9.50
2018-03-27T06:50:46.126Z,9.83
2018-03-27T06:53:14.753Z,9.93
2018-03-27T06:55:43.387Z,9.27
2018-03-27T06:58:11.971Z,23.37
2018-03-27T07:00:40.617Z,17.90
2018-03-27T07:03:09.240Z,19.23
2018-03-27T07:05:38.004Z,8.10
2018-03-27T07:08:06.881Z,7.77
2018-03-27T07:10:35.645Z,9.13
2018-03-27T07:13:04.254Z,7.50
2018-03-27T07:15:32.888Z,9.00
2018-03-27T07:18:01.507Z,7.77
2018-03-27T07:20:30.265Z,7.87
2018-03-27T07:22:59.012Z,7.00
2018-03-27T07:25:27.661Z,7.27
2018-03-27T07:27:56.527Z,7.00
2018-03-27T07:30:25.128Z,6.63
2018-03-27T07:32:53.768Z,8.03
2018-03-27T07:35:22.384Z,7.00
2018-03-27T07:37:51.039Z,16.40
2018-03-27T07:40:19.680Z,6.53
2018-03-27T07:42:48.312Z,7.30
2018-03-27T07:45:16.919Z,7.40
2018-03-27T07:47:45.563Z,8.03
2018-03-27T07:50:14.173Z,6.03
2018-03-27T07:52:42.794Z,7.20
2018-03-27T07:55:11.430Z,6.50
2018-03-27T07:57:40.412Z,7.13
2018-03-27T08:00:09.103Z,7.00
2018-03-27T08:02:37.702Z,6.70
2018-03-27T08:05:06.440Z,5.60
2018-03-27T08:07:35.025Z,5.97
2018-03-27T08:10:03.729Z,5.17
2018-03-27T08:12:32.443Z,6.03
2018-03-27T08:15:01.163Z,6.13
2018-03-27T08:17:29.891Z,5.67
2018-03-27T08:19:58.516Z,4.83
2018-03-27T08:22:27.331Z,6.63
2018-03-27T08:24:56.053Z,6.37
2018-03-27T08:27:25.242Z,6.77
2018-03-27T08:29:53.851Z,5.93
2018-03-27T08:32:22.518Z,6.43
2018-03-27T08:34:51.144Z,6.77
2018-03-27T08:37:19.752Z,6.70
2018-03-27T08:39:48.395Z,7.37
2018-03-27T08:42:17.135Z,6.90
2018-03-27T08:44:45.832Z,8.67
2018-03-27T08:47:14.501Z,6.57
2018-03-27T08:49:43.271Z,6.03
2018-03-27T08:52:11.879Z,5.77
2018-03-27T08:54:40.854Z,10.93
2018-03-27T08:57:09.597Z,11.90
2018-03-27T08:59:38.205Z,10.30
2018-03-27T09:02:06.858Z,11.67
2018-03-27T09:04:35.512Z,13.27
2018-03-27T09:07:04.210Z,14.83
2018-03-27T09:09:32.863Z,14.63
2018-03-27T09:12:01.449Z,13.33
2018-03-27T09:14:30.057Z,12.27
2018-03-27T09:16:58.920Z,15.10
2018-03-27T09:19:27.562Z,14.27
2018-03-27T09:21:56.210Z,14.13
2018-03-27T09:24:24.978Z,15.47
2018-03-27T09:26:53.646Z,15.90
2018-03-27T09:29:22.281Z,15.07
2018-03-27T09:31:50.916Z,15.67
2018-03-27T09:34:19.519Z,14.67
2018-03-27T09:36:48.298Z,13.43
2018-03-27T09:39:16.952Z,14.30
2018-03-27T09:41:45.589Z,17.23
2018-03-27T09:44:14.452Z,16.90
2018-03-27T09:46:43.054Z,16.33
2018-03-27T09:49:11.671Z,16.93
2018-03-27T09:51:40.324Z,16.57
2018-03-27T09:54:09.038Z,17.53
2018-03-27T09:56:37.701Z,16.63
2018-03-27T09:59:06.387Z,16.93
2018-03-27T10:01:39.819Z,16.13
2018-03-27T10:04:08.448Z,16.37
2018-03-27T10:06:37.140Z,14.47
2018-03-27T10:09:06.055Z,16.17
2018-03-27T10:11:34.689Z,16.47
2018-03-27T10:14:03.325Z,15.73
2018-03-27T10:16:31.964Z,16.50
2018-03-27T10:19:00.673Z,15.60
2018-03-27T10:21:29.403Z,16.30
2018-03-27T10:23:58.036Z,15.60
2018-03-27T10:26:26.648Z,15.27
2018-03-27T10:28:55.330Z,15.50
2018-03-27T10:31:23.923Z,15.17
2018-03-27T10:33:53.203Z,15.67
2018-03-27T10:36:21.823Z,16.83
2018-03-27T10:38:50.498Z,15.13
2018-03-27T10:41:19.271Z,17.23
2018-03-27T10:43:47.882Z,14.93
2018-03-27T10:46:16.715Z,15.63
2018-03-27T10:48:45.437Z,14.87
2018-03-27T10:51:14.082Z,14.50
2018-03-27T10:53:42.702Z,15.80
2018-03-27T10:56:11.348Z,13.73
2018-03-27T10:58:39.980Z,12.63
2018-03-27T11:01:08.642Z,14.27
2018-03-27T11:03:37.377Z,14.50
2018-03-27T11:06:06.087Z,15.70
2018-03-27T11:08:34.777Z,15.50
2018-03-27T11:11:03.549Z,15.93
2018-03-27T11:13:32.888Z,17.23
2018-03-27T11:16:01.510Z,17.80
2018-03-27T11:18:30.185Z,15.23
2018-03-27T11:20:58.817Z,15.40
2018-03-27T11:23:27.441Z,15.93
2018-03-27T11:25:56.122Z,16.37
2018-03-27T11:28:24.786Z,15.73
2018-03-27T11:30:53.456Z,15.83
2018-03-27T11:33:22.129Z,14.50
2018-03-27T11:35:50.862Z,14.03
2018-03-27T11:38:19.643Z,19.13
2018-03-27T11:40:48.296Z,14.50
2018-03-27T11:43:17.429Z,13.07
2018-03-27T11:45:46.062Z,13.67
2018-03-27T11:48:14.752Z,14.53
2018-03-27T11:50:43.388Z,12.73
2018-03-27T11:53:12.820Z,12.63
2018-03-27T11:55:41.526Z,13.37
2018-03-27T11:58:10.229Z,13.13
2018-03-27T12:00:38.875Z,11.43
2018-03-27T12:03:07.629Z,11.77
2018-03-27T12:05:36.299Z,13.50
2018-03-27T12:08:05.032Z,17.27
2018-03-27T12:10:33.717Z,12.57
2018-03-27T12:13:02.431Z,10.20
2018-03-27T12:15:31.065Z,12.77
2018-03-27T12:17:59.722Z,11.00
2018-03-27T12:20:28.320Z,10.93
2018-03-27T12:22:56.969Z,11.63
2018-03-27T12:25:25.595Z,12.90
2018-03-27T12:27:54.250Z,10.57
2018-03-27T12:30:22.871Z,10.03
2018-03-27T12:32:51.559Z,10.17
2018-03-27T12:35:20.163Z,10.20
2018-03-27T12:37:48.741Z,9.70
2018-03-27T12:40:17.282Z,11.23
2018-03-27T12:42:45.864Z,10.53
2018-03-27T12:45:14.465Z,9.73
2018-03-27T12:47:43.097Z,10.50
2018-03-27T12:50:11.700Z,9.80
2018-03-27T12:52:40.726Z,9.33
2018-03-27T12:55:09.293Z,10.00
2018-03-27T12:57:37.908Z,7.50
2018-03-27T13:00:06.540Z,8.53
2018-03-27T13:02:35.231Z,9.07
2018-03-27T13:05:03.782Z,9.30
2018-03-27T13:07:32.559Z,11.30
2018-03-27T13:10:01.378Z,9.90
2018-03-27T13:12:29.978Z,8.60
2018-03-27T13:14:58.574Z,9.97
2018-03-27T13:17:27.174Z,10.00
2018-03-27T13:19:55.799Z,10.33
2018-03-27T13:22:25.160Z,10.40
2018-03-27T13:24:53.717Z,9.83
2018-03-27T13:27:22.320Z,9.67
2018-03-27T13:29:50.904Z,9.40
2018-03-27T13:32:19.758Z,9.27
2018-03-27T13:34:48.298Z,8.70
2018-03-27T13:37:16.933Z,9.87
2018-03-27T13:39:45.591Z,9.43
2018-03-27T13:42:14.185Z,9.47
2018-03-27T13:44:42.791Z,8.13
2018-03-27T13:47:11.385Z,9.90
2018-03-27T13:49:39.974Z,9.10
2018-03-27T13:52:08.675Z,9.33
2018-03-27T13:54:37.980Z,9.70
2018-03-27T13:57:06.539Z,11.40
2018-03-27T13:59:35.202Z,14.13
2018-03-27T14:02:03.788Z,12.33
2018-03-27T14:04:32.403Z,15.13
2018-03-27T14:07:01.003Z,14.53
2018-03-27T14:09:29.678Z,16.33
2018-03-27T14:11:58.277Z,15.40
2018-03-27T14:14:26.824Z,16.47
2018-03-27T14:16:55.474Z,15.83
2018-03-27T14:19:24.268Z,16.00
2018-03-27T14:21:52.884Z,15.73
2018-03-27T14:24:22.232Z,15.53
2018-03-27T14:26:50.866Z,13.60
2018-03-27T14:29:19.445Z,14.13
2018-03-27T14:31:48.004Z,10.83
2018-03-27T14:34:16.626Z,10.53
2018-03-27T14:36:52.284Z,14.43
2018-03-27T14:39:20.897Z,15.63
2018-03-27T14:41:50.284Z,10.40
2018-03-27T14:44:19.056Z,12.77
2018-03-27T14:46:47.910Z,9.77
2018-03-27T14:49:16.587Z,10.70
2018-03-27T14:51:45.407Z,11.97
2018-03-27T14:54:14.068Z,12.13
2018-03-27T14:56:42.743Z,12.27
2018-03-27T14:59:11.372Z,14.00
2018-03-27T15:01:40.089Z,13.27
2018-03-27T15:04:08.787Z,13.20
2018-03-27T15:06:37.431Z,13.47
2018-03-27T15:09:06.255Z,12.27
2018-03-27T15:11:34.984Z,13.83
2018-03-27T15:14:03.556Z,16.60
2018-03-27T15:16:32.820Z,13.23
2018-03-27T15:19:01.455Z,12.30
2018-03-27T15:21:30.164Z,14.03
2018-03-27T15:23:58.882Z,14.40
2018-03-27T15:26:27.607Z,11.57
2018-03-27T15:28:56.332Z,11.20
2018-03-27T15:31:25.050Z,12.03
2018-03-27T15:33:53.671Z,13.50
2018-03-27T15:36:22.314Z,13.40
2018-03-27T15:38:50.924Z,14.10
2018-03-27T15:41:19.736Z,14.50
2018-03-27T15:43:48.462Z,14.33
2018-03-27T15:46:17.181Z,12.47
2018-03-27T15:48:45.812Z,15.43
2018-03-27T15:51:14.526Z,15.07
2018-03-27T15:53:43.787Z,14.57
2018-03-27T15:56:12.571Z,17.47
2018-03-27T15:58:41.292Z,12.27
2018-03-27T16:01:10.583Z,12.93
2018-03-27T16:03:39.336Z,13.53
2018-03-27T16:06:07.952Z,15.00
2018-03-27T16:08:36.682Z,13.07
2018-03-27T16:11:05.403Z,13.53
2018-03-27T16:13:34.031Z,13.47
2018-03-27T16:16:02.750Z,15.60
2018-03-27T16:18:31.436Z,19.57
2018-03-27T16:21:00.023Z,13.10
2018-03-27T16:23:28.705Z,13.03
2018-03-27T16:25:57.426Z,15.63
2018-03-27T16:28:26.012Z,15.37
2018-03-27T16:30:54.769Z,15.60
2018-03-27T16:33:24.221Z,14.70
2018-03-27T16:35:53.117Z,14.50
2018-03-27T16:38:21.740Z,12.23
2018-03-27T16:40:50.459Z,13.23
2018-03-27T16:43:19.080Z,10.13
2018-03-27T16:45:48.794Z,13.90
2018-03-27T16:48:17.348Z,12.87
2018-03-27T16:50:46.149Z,13.47
2018-03-27T16:53:14.875Z,13.57
2018-03-27T16:55:43.595Z,12.37
2018-03-27T16:58:12.191Z,14.13
2018-03-27T17:00:40.918Z,12.73
2018-03-27T17:03:09.662Z,12.37
2018-03-27T17:05:38.476Z,13.87
2018-03-27T17:08:07.085Z,13.83
2018-03-27T17:10:35.825Z,14.03
2018-03-27T17:13:04.649Z,13.93
2018-03-27T17:15:33.237Z,13.03
2018-03-27T17:18:01.960Z,12.70
2018-03-27T17:20:30.813Z,14.35
2018-03-27T17:22:59.538Z,13.97
2018-03-27T17:25:28.258Z,14.57
2018-03-27T17:27:56.884Z,14.90
2018-03-27T17:30:25.607Z,16.57
2018-03-27T17:32:54.422Z,16.43
2018-03-27T17:35:23.125Z,15.97
2018-03-27T17:37:51.869Z,16.63
2018-03-27T17:40:20.691Z,16.70
2018-03-27T17:42:49.445Z,15.70
2018-03-27T17:45:18.091Z,15.43
2018-03-27T17:47:46.853Z,14.33
2018-03-27T17:50:16.684Z,14.20
2018-03-27T17:52:45.390Z,13.33
2018-03-27T17:55:14.037Z,13.93
2018-03-27T17:57:43.362Z,15.33
2018-03-27T18:00:12.170Z,16.43
2018-03-27T18:02:40.859Z,19.47
2018-03-27T18:05:09.522Z,18.57
2018-03-27T18:07:38.135Z,15.40
2018-03-27T18:10:06.777Z,15.40
2018-03-27T18:12:35.528Z,16.53
2018-03-27T18:15:04.304Z,16.43
2018-03-27T18:17:32.861Z,17.40
2018-03-27T18:20:01.646Z,17.20
2018-03-27T18:22:30.247Z,15.43
2018-03-27T18:24:58.990Z,15.57
2018-03-27T18:27:27.712Z,17.20
2018-03-27T18:29:56.330Z,17.33
2018-03-27T18:32:25.054Z,17.97
2018-03-27T18:34:54.323Z,19.02
2018-03-27T18:37:22.928Z,18.17
2018-03-27T18:39:51.541Z,18.23
2018-03-27T18:42:20.273Z,19.73
2018-03-27T18:44:48.963Z,22.37
2018-03-27T18:47:17.604Z,20.93
2018-03-27T18:49:46.325Z,21.10
2018-03-27T18:52:14.992Z,22.27
2018-03-27T18:54:43.751Z,20.40
2018-03-27T18:57:12.350Z,17.87
2018-03-27T18:59:41.096Z,18.30
2018-03-27T19:02:09.814Z,18.63
2018-03-27T19:04:38.640Z,21.00
2018-03-27T19:07:07.259Z,18.83
2018-03-27T19:09:37.687Z,18.90
2018-03-27T19:12:06.413Z,17.47
2018-03-27T19:14:35.068Z,17.80
2018-03-27T19:17:03.754Z,16.60
2018-03-27T19:19:32.476Z,19.03
2018-03-27T19:22:01.201Z,16.67
2018-03-27T19:24:29.830Z,16.67
2018-03-27T19:26:58.542Z,16.00
2018-03-27T19:29:27.263Z,18.33
2018-03-27T19:31:55.885Z,19.27
2018-03-27T19:34:24.511Z,22.53
2018-03-27T19:36:53.128Z,38.93
2018-03-27T19:39:21.936Z,27.93
2018-03-27T19:41:50.581Z,26.40
2018-03-27T19:44:19.315Z,83.37
2018-03-27T19:46:48.024Z,68.17
2018-03-27T19:49:16.643Z,32.23
2018-03-27T19:51:45.530Z,29.57
2018-03-27T19:54:14.260Z,49.27
2018-03-27T19:56:42.998Z,25.23
2018-03-27T19:59:11.727Z,20.37
2018-03-27T20:01:40.450Z,21.52
2018-03-27T20:04:09.168Z,20.53
2018-03-27T20:06:37.890Z,22.23
2018-03-27T20:09:06.517Z,21.97
2018-03-27T20:11:35.140Z,29.47
2018-03-27T20:14:03.871Z,25.17
2018-03-27T20:16:32.492Z,20.90
2018-03-27T20:19:01.273Z,19.33
2018-03-27T20:21:30.025Z,20.80
2018-03-27T20:23:59.250Z,22.08
2018-03-27T20:26:27.946Z,20.27
2018-03-27T20:28:56.590Z,20.77
2018-03-27T20:31:25.307Z,22.47
2018-03-27T20:33:54.035Z,21.50
2018-03-27T20:36:22.741Z,29.70
2018-03-27T20:38:51.455Z,20.07
2018-03-27T20:41:20.097Z,21.37
2018-03-27T20:43:48.662Z,26.33
2018-03-27T20:46:17.442Z,21.80
2018-03-27T20:48:45.994Z,20.43
2018-03-27T20:51:14.785Z,20.62
2018-03-27T20:53:43.506Z,21.63
2018-03-27T20:56:12.156Z,22.57
2018-03-27T20:58:40.763Z,21.53
2018-03-27T21:01:09.511Z,19.67
2018-03-27T21:03:38.082Z,14.47
2018-03-27T21:06:06.815Z,16.35
2018-03-27T21:08:36.238Z,19.17
2018-03-27T21:11:04.960Z,17.53
2018-03-27T21:13:33.646Z,14.20
2018-03-27T21:16:02.303Z,15.35
2018-03-27T21:18:31.026Z,15.37
2018-03-27T21:20:59.749Z,15.20
2018-03-27T21:23:28.470Z,15.02
2018-03-27T21:25:57.107Z,16.27
2018-03-27T21:28:25.789Z,18.03
2018-03-27T21:30:54.400Z,18.77
2018-03-27T21:33:22.972Z,19.17
2018-03-27T21:35:51.736Z,19.80
2018-03-27T21:38:20.378Z,19.45
2018-03-27T21:40:49.024Z,21.37
2018-03-27T21:43:17.742Z,21.15
2018-03-27T21:45:47.168Z,20.98
2018-03-27T21:48:15.891Z,20.95
2018-03-27T21:50:44.711Z,20.80
2018-03-27T21:53:13.467Z,20.02
2018-03-27T21:55:42.073Z,21.20
2018-03-27T21:58:10.822Z,17.20
2018-03-27T22:00:39.500Z,21.45
2018-03-27T22:03:08.244Z,18.67
2018-03-27T22:05:36.837Z,18.30
2018-03-27T22:08:05.599Z,18.55
2018-03-27T22:10:34.270Z,17.40
2018-03-27T22:13:03.114Z,17.83
2018-03-27T22:15:31.746Z,16.95
2018-03-27T22:18:00.554Z,17.95
2018-03-27T22:20:29.191Z,17.08
2018-03-27T22:22:58.085Z,17.17
2018-03-27T22:25:26.716Z,18.52
2018-03-27T22:27:55.472Z,18.77
2018-03-27T22:30:24.866Z,19.30
2018-03-27T22:32:53.587Z,19.73
2018-03-27T22:35:22.309Z,19.33
2018-03-27T22:37:51.004Z,19.03
2018-03-27T22:40:19.660Z,18.83
2018-03-27T22:42:48.289Z,19.23
2018-03-27T22:45:17.601Z,18.10
2018-03-27T22:47:48.093Z,17.52
2018-03-27T22:50:16.849Z,18.23
2018-03-27T22:52:47.981Z,18.40
2018-03-27T22:55:16.616Z,17.77
2018-03-27T22:57:45.388Z,16.97
2018-03-27T23:00:15.448Z,20.02
2018-03-27T23:02:43.843Z,18.67
2018-03-27T23:05:13.696Z,19.57
2018-03-27T23:07:42.320Z,18.67
2018-03-27T23:10:11.050Z,18.27
2018-03-27T23:12:39.761Z,17.07
2018-03-27T23:15:08.493Z,18.60
2018-03-27T23:17:37.203Z,18.27
2018-03-27T23:20:05.984Z,17.00
2018-03-27T23:22:34.748Z,15.93
2018-03-27T23:25:03.420Z,17.67
2018-03-27T23:27:32.104Z,16.77
2018-03-27T23:30:01.120Z,15.98
2018-03-27T23:32:29.941Z,17.23
2018-03-27T23:34:58.679Z,15.33
2018-03-27T23:37:27.383Z,14.73
2018-03-27T23:39:56.124Z,14.57
2018-03-27T23:42:24.925Z,14.93
2018-03-27T23:44:53.647Z,15.37
2018-03-27T23:47:22.368Z,15.13
2018-03-27T23:49:51.002Z,15.48
2018-03-27T23:52:19.613Z,16.45
2018-03-27T23:54:48.258Z,15.40
2018-03-27T23:57:16.860Z,15.00
2018-03-27T23:59:45.578Z,15.68
